sensor_id;sensor_type;location;lat;lon;timestamp;temperature;humidity
64997;SHT31;51545;51.568;6.998;2022-08-21T00:01:50;18.33;78.62
64997;SHT31;51545;51.568;6.998;2022-08-21T00:04:16;18.15;79.40
64997;SHT31;51545;51.568;6.998;2022-08-21T00:06:42;18.13;79.92
64997;SHT31;51545;51.568;6.998;2022-08-21T00:09:08;18.09;80.05
64997;SHT31;51545;51.568;6.998;2022-08-21T00:11:34;17.89;81.01
64997;SHT31;51545;51.568;6.998;2022-08-21T00:14:02;17.94;80.75
64997;SHT31;51545;51.568;6.998;2022-08-21T00:16:28;17.92;81.05
64997;SHT31;51545;51.568;6.998;2022-08-21T00:18:54;17.88;80.91
64997;SHT31;51545;51.568;6.998;2022-08-21T00:21:19;17.85;81.36
64997;SHT31;51545;51.568;6.998;2022-08-21T00:23:45;17.71;81.96
64997;SHT31;51545;51.568;6.998;2022-08-21T00:26:11;17.82;81.78
64997;SHT31;51545;51.568;6.998;2022-08-21T00:28:36;17.67;82.51
64997;SHT31;51545;51.568;6.998;2022-08-21T00:31:02;17.81;81.64
64997;SHT31;51545;51.568;6.998;2022-08-21T00:33:29;17.71;82.17
64997;SHT31;51545;51.568;6.998;2022-08-21T00:35:55;17.67;82.39
64997;SHT31;51545;51.568;6.998;2022-08-21T00:38:21;17.71;82.15
64997;SHT31;51545;51.568;6.998;2022-08-21T00:40:54;17.69;82.26
64997;SHT31;51545;51.568;6.998;2022-08-21T00:43:23;17.60;82.59
64997;SHT31;51545;51.568;6.998;2022-08-21T00:45:52;17.60;82.79
64997;SHT31;51545;51.568;6.998;2022-08-21T00:48:18;17.67;82.51
64997;SHT31;51545;51.568;6.998;2022-08-21T00:50:46;17.64;82.08
64997;SHT31;51545;51.568;6.998;2022-08-21T00:53:40;17.37;82.50
64997;SHT31;51545;51.568;6.998;2022-08-21T00:56:08;17.32;82.70
64997;SHT31;51545;51.568;6.998;2022-08-21T00:58:36;17.36;82.53
64997;SHT31;51545;51.568;6.998;2022-08-21T01:01:04;17.29;82.47
64997;SHT31;51545;51.568;6.998;2022-08-21T01:03:31;17.18;83.09
64997;SHT31;51545;51.568;6.998;2022-08-21T01:05:58;17.18;83.13
64997;SHT31;51545;51.568;6.998;2022-08-21T01:08:23;17.20;82.80
64997;SHT31;51545;51.568;6.998;2022-08-21T01:10:50;17.18;82.91
64997;SHT31;51545;51.568;6.998;2022-08-21T01:13:18;17.01;83.50
64997;SHT31;51545;51.568;6.998;2022-08-21T01:15:45;17.04;82.93
64997;SHT31;51545;51.568;6.998;2022-08-21T01:18:13;16.94;83.16
64997;SHT31;51545;51.568;6.998;2022-08-21T01:20:42;16.74;84.30
64997;SHT31;51545;51.568;6.998;2022-08-21T01:23:11;16.72;83.97
64997;SHT31;51545;51.568;6.998;2022-08-21T01:25:37;16.60;84.77
64997;SHT31;51545;51.568;6.998;2022-08-21T01:28:06;16.59;84.53
64997;SHT31;51545;51.568;6.998;2022-08-21T01:30:38;16.29;86.33
64997;SHT31;51545;51.568;6.998;2022-08-21T01:33:05;16.37;85.31
64997;SHT31;51545;51.568;6.998;2022-08-21T01:35:30;16.37;85.19
64997;SHT31;51545;51.568;6.998;2022-08-21T01:37:56;16.29;85.63
64997;SHT31;51545;51.568;6.998;2022-08-21T01:40:22;16.26;85.97
64997;SHT31;51545;51.568;6.998;2022-08-21T01:42:47;16.28;85.84
64997;SHT31;51545;51.568;6.998;2022-08-21T01:45:14;16.21;86.12
64997;SHT31;51545;51.568;6.998;2022-08-21T01:47:41;16.04;87.19
64997;SHT31;51545;51.568;6.998;2022-08-21T01:50:08;16.11;87.33
64997;SHT31;51545;51.568;6.998;2022-08-21T01:52:36;16.16;86.40
64997;SHT31;51545;51.568;6.998;2022-08-21T01:55:03;15.95;87.13
64997;SHT31;51545;51.568;6.998;2022-08-21T01:57:30;16.02;86.62
64997;SHT31;51545;51.568;6.998;2022-08-21T01:59:57;15.91;86.68
64997;SHT31;51545;51.568;6.998;2022-08-21T02:02:23;15.77;88.12
64997;SHT31;51545;51.568;6.998;2022-08-21T02:04:48;15.92;87.91
64997;SHT31;51545;51.568;6.998;2022-08-21T02:07:14;15.99;87.09
64997;SHT31;51545;51.568;6.998;2022-08-21T02:09:40;15.98;87.29
64997;SHT31;51545;51.568;6.998;2022-08-21T02:12:08;16.08;86.75
64997;SHT31;51545;51.568;6.998;2022-08-21T02:14:34;16.05;86.46
64997;SHT31;51545;51.568;6.998;2022-08-21T02:17:00;15.75;88.13
64997;SHT31;51545;51.568;6.998;2022-08-21T02:19:26;15.89;87.26
64997;SHT31;51545;51.568;6.998;2022-08-21T02:21:51;15.77;87.22
64997;SHT31;51545;51.568;6.998;2022-08-21T02:24:17;15.57;89.38
64997;SHT31;51545;51.568;6.998;2022-08-21T02:26:42;15.56;88.73
64997;SHT31;51545;51.568;6.998;2022-08-21T02:29:08;15.50;88.80
64997;SHT31;51545;51.568;6.998;2022-08-21T02:31:33;15.63;88.80
64997;SHT31;51545;51.568;6.998;2022-08-21T02:33:59;15.64;88.06
64997;SHT31;51545;51.568;6.998;2022-08-21T02:36:26;15.59;88.25
64997;SHT31;51545;51.568;6.998;2022-08-21T02:38:52;15.40;89.66
64997;SHT31;51545;51.568;6.998;2022-08-21T02:41:18;15.54;88.75
64997;SHT31;51545;51.568;6.998;2022-08-21T02:43:46;15.59;88.33
64997;SHT31;51545;51.568;6.998;2022-08-21T02:46:13;15.61;88.41
64997;SHT31;51545;51.568;6.998;2022-08-21T02:48:40;15.49;89.45
64997;SHT31;51545;51.568;6.998;2022-08-21T02:51:10;15.46;89.94
64997;SHT31;51545;51.568;6.998;2022-08-21T02:53:37;15.49;89.72
64997;SHT31;51545;51.568;6.998;2022-08-21T02:56:04;15.56;88.74
64997;SHT31;51545;51.568;6.998;2022-08-21T02:58:34;15.50;88.91
64997;SHT31;51545;51.568;6.998;2022-08-21T03:01:03;15.44;89.60
64997;SHT31;51545;51.568;6.998;2022-08-21T03:03:30;15.31;90.70
64997;SHT31;51545;51.568;6.998;2022-08-21T03:05:55;15.35;90.48
64997;SHT31;51545;51.568;6.998;2022-08-21T03:08:22;15.47;89.98
64997;SHT31;51545;51.568;6.998;2022-08-21T03:10:49;15.47;89.37
64997;SHT31;51545;51.568;6.998;2022-08-21T03:13:16;15.44;89.93
64997;SHT31;51545;51.568;6.998;2022-08-21T03:15:43;15.47;89.84
64997;SHT31;51545;51.568;6.998;2022-08-21T03:18:09;15.54;89.35
64997;SHT31;51545;51.568;6.998;2022-08-21T03:20:36;15.53;88.99
64997;SHT31;51545;51.568;6.998;2022-08-21T03:23:04;15.53;89.07
64997;SHT31;51545;51.568;6.998;2022-08-21T03:25:30;15.57;89.10
64997;SHT31;51545;51.568;6.998;2022-08-21T03:28:03;15.50;89.41
64997;SHT31;51545;51.568;6.998;2022-08-21T03:30:30;15.44;90.00
64997;SHT31;51545;51.568;6.998;2022-08-21T03:32:59;15.50;90.08
64997;SHT31;51545;51.568;6.998;2022-08-21T03:35:26;15.39;90.67
64997;SHT31;51545;51.568;6.998;2022-08-21T03:37:53;15.46;90.45
64997;SHT31;51545;51.568;6.998;2022-08-21T03:40:19;15.44;90.41
64997;SHT31;51545;51.568;6.998;2022-08-21T03:42:46;15.53;89.69
64997;SHT31;51545;51.568;6.998;2022-08-21T03:45:13;15.54;89.92
64997;SHT31;51545;51.568;6.998;2022-08-21T03:47:50;15.49;90.40
64997;SHT31;51545;51.568;6.998;2022-08-21T03:50:18;15.57;89.76
64997;SHT31;51545;51.568;6.998;2022-08-21T03:52:44;15.44;90.23
64997;SHT31;51545;51.568;6.998;2022-08-21T03:55:10;15.50;90.37
64997;SHT31;51545;51.568;6.998;2022-08-21T03:57:35;15.50;89.72
64997;SHT31;51545;51.568;6.998;2022-08-21T04:00:01;15.43;89.73
64997;SHT31;51545;51.568;6.998;2022-08-21T04:02:28;15.49;89.74
64997;SHT31;51545;51.568;6.998;2022-08-21T04:04:53;15.35;89.53
64997;SHT31;51545;51.568;6.998;2022-08-21T04:07:19;15.23;90.28
64997;SHT31;51545;51.568;6.998;2022-08-21T04:09:44;15.19;90.20
64997;SHT31;51545;51.568;6.998;2022-08-21T04:12:10;14.97;91.88
64997;SHT31;51545;51.568;6.998;2022-08-21T04:14:35;14.97;91.99
64997;SHT31;51545;51.568;6.998;2022-08-21T04:17:01;14.97;91.91
64997;SHT31;51545;51.568;6.998;2022-08-21T04:19:26;15.01;90.91
64997;SHT31;51545;51.568;6.998;2022-08-21T04:21:52;14.95;91.00
64997;SHT31;51545;51.568;6.998;2022-08-21T04:24:17;14.94;90.78
64997;SHT31;51545;51.568;6.998;2022-08-21T04:26:44;14.81;91.29
64997;SHT31;51545;51.568;6.998;2022-08-21T04:29:09;14.84;92.58
64997;SHT31;51545;51.568;6.998;2022-08-21T04:31:35;14.92;92.70
64997;SHT31;51545;51.568;6.998;2022-08-21T04:34:04;14.85;91.33
64997;SHT31;51545;51.568;6.998;2022-08-21T04:36:30;14.67;91.41
64997;SHT31;51545;51.568;6.998;2022-08-21T04:38:57;14.63;92.54
64997;SHT31;51545;51.568;6.998;2022-08-21T04:41:22;14.64;93.06
64997;SHT31;51545;51.568;6.998;2022-08-21T04:43:48;14.83;92.87
64997;SHT31;51545;51.568;6.998;2022-08-21T04:46:14;14.97;92.50
64997;SHT31;51545;51.568;6.998;2022-08-21T04:48:40;14.97;92.10
64997;SHT31;51545;51.568;6.998;2022-08-21T04:51:10;15.14;91.94
64997;SHT31;51545;51.568;6.998;2022-08-21T04:53:44;15.31;91.44
64997;SHT31;51545;51.568;6.998;2022-08-21T04:56:20;15.29;91.41
64997;SHT31;51545;51.568;6.998;2022-08-21T04:58:48;15.31;91.21
64997;SHT31;51545;51.568;6.998;2022-08-21T05:01:17;15.31;91.48
64997;SHT31;51545;51.568;6.998;2022-08-21T05:03:46;15.39;91.07
64997;SHT31;51545;51.568;6.998;2022-08-21T05:06:14;15.47;90.99
64997;SHT31;51545;51.568;6.998;2022-08-21T05:08:42;15.49;90.75
64997;SHT31;51545;51.568;6.998;2022-08-21T05:11:11;15.52;90.61
64997;SHT31;51545;51.568;6.998;2022-08-21T05:13:36;15.60;90.35
64997;SHT31;51545;51.568;6.998;2022-08-21T05:16:02;15.60;90.19
64997;SHT31;51545;51.568;6.998;2022-08-21T05:18:28;15.70;89.88
64997;SHT31;51545;51.568;6.998;2022-08-21T05:20:54;15.75;89.81
64997;SHT31;51545;51.568;6.998;2022-08-21T05:23:19;15.81;89.64
64997;SHT31;51545;51.568;6.998;2022-08-21T05:25:45;15.87;89.50
64997;SHT31;51545;51.568;6.998;2022-08-21T05:28:10;16.06;89.20
64997;SHT31;51545;51.568;6.998;2022-08-21T05:30:37;16.01;89.12
64997;SHT31;51545;51.568;6.998;2022-08-21T05:33:05;16.15;89.21
64997;SHT31;51545;51.568;6.998;2022-08-21T05:35:31;16.09;88.79
64997;SHT31;51545;51.568;6.998;2022-08-21T05:37:57;16.12;88.99
64997;SHT31;51545;51.568;6.998;2022-08-21T05:40:23;16.19;89.12
64997;SHT31;51545;51.568;6.998;2022-08-21T05:42:50;16.30;88.57
64997;SHT31;51545;51.568;6.998;2022-08-21T05:45:16;16.37;88.59
64997;SHT31;51545;51.568;6.998;2022-08-21T05:47:42;16.40;88.02
64997;SHT31;51545;51.568;6.998;2022-08-21T05:50:08;16.44;88.01
64997;SHT31;51545;51.568;6.998;2022-08-21T05:52:34;16.59;87.16
64997;SHT31;51545;51.568;6.998;2022-08-21T05:55:00;16.65;87.20
64997;SHT31;51545;51.568;6.998;2022-08-21T05:57:25;16.67;87.00
64997;SHT31;51545;51.568;6.998;2022-08-21T05:59:51;16.71;87.06
64997;SHT31;51545;51.568;6.998;2022-08-21T06:02:18;16.84;86.96
64997;SHT31;51545;51.568;6.998;2022-08-21T06:04:45;16.91;86.03
64997;SHT31;51545;51.568;6.998;2022-08-21T06:07:10;16.99;85.79
64997;SHT31;51545;51.568;6.998;2022-08-21T06:09:36;17.04;85.58
64997;SHT31;51545;51.568;6.998;2022-08-21T06:12:06;17.05;84.73
64997;SHT31;51545;51.568;6.998;2022-08-21T06:14:34;17.18;84.40
64997;SHT31;51545;51.568;6.998;2022-08-21T06:17:07;17.19;83.61
64997;SHT31;51545;51.568;6.998;2022-08-21T06:19:35;17.19;83.50
64997;SHT31;51545;51.568;6.998;2022-08-21T06:22:01;17.25;83.60
64997;SHT31;51545;51.568;6.998;2022-08-21T06:24:28;17.35;83.26
64997;SHT31;51545;51.568;6.998;2022-08-21T06:26:53;17.27;83.37
64997;SHT31;51545;51.568;6.998;2022-08-21T06:29:20;17.39;82.76
64997;SHT31;51545;51.568;6.998;2022-08-21T06:31:47;17.37;82.40
64997;SHT31;51545;51.568;6.998;2022-08-21T06:34:14;17.49;82.50
64997;SHT31;51545;51.568;6.998;2022-08-21T06:36:40;17.51;81.93
64997;SHT31;51545;51.568;6.998;2022-08-21T06:39:06;17.47;81.23
64997;SHT31;51545;51.568;6.998;2022-08-21T06:41:31;17.53;80.90
64997;SHT31;51545;51.568;6.998;2022-08-21T06:43:57;17.58;80.72
64997;SHT31;51545;51.568;6.998;2022-08-21T06:46:24;17.80;80.14
64997;SHT31;51545;51.568;6.998;2022-08-21T06:48:50;17.89;80.12
64997;SHT31;51545;51.568;6.998;2022-08-21T06:51:16;17.94;79.43
64997;SHT31;51545;51.568;6.998;2022-08-21T06:53:43;17.92;79.03
64997;SHT31;51545;51.568;6.998;2022-08-21T06:56:08;17.94;78.66
64997;SHT31;51545;51.568;6.998;2022-08-21T06:58:34;18.05;78.70
64997;SHT31;51545;51.568;6.998;2022-08-21T07:00:59;18.08;78.14
64997;SHT31;51545;51.568;6.998;2022-08-21T07:03:29;18.09;78.75
64997;SHT31;51545;51.568;6.998;2022-08-21T07:05:58;18.18;77.60
64997;SHT31;51545;51.568;6.998;2022-08-21T07:08:24;18.37;77.99
64997;SHT31;51545;51.568;6.998;2022-08-21T07:10:53;18.37;77.11
64997;SHT31;51545;51.568;6.998;2022-08-21T07:13:21;18.40;77.72
64997;SHT31;51545;51.568;6.998;2022-08-21T07:15:47;18.54;77.06
64997;SHT31;51545;51.568;6.998;2022-08-21T07:18:14;18.64;76.66
64997;SHT31;51545;51.568;6.998;2022-08-21T07:20:40;18.75;76.62
64997;SHT31;51545;51.568;6.998;2022-08-21T07:23:09;18.72;76.24
64997;SHT31;51545;51.568;6.998;2022-08-21T07:25:37;18.94;75.98
64997;SHT31;51545;51.568;6.998;2022-08-21T07:28:03;19.10;75.59
64997;SHT31;51545;51.568;6.998;2022-08-21T07:30:29;19.09;75.21
64997;SHT31;51545;51.568;6.998;2022-08-21T07:32:54;19.15;74.69
64997;SHT31;51545;51.568;6.998;2022-08-21T07:35:21;19.39;74.68
64997;SHT31;51545;51.568;6.998;2022-08-21T07:37:47;19.64;74.19
64997;SHT31;51545;51.568;6.998;2022-08-21T07:40:13;19.78;73.61
64997;SHT31;51545;51.568;6.998;2022-08-21T07:42:40;19.88;71.88
64997;SHT31;51545;51.568;6.998;2022-08-21T07:45:09;20.08;70.72
64997;SHT31;51545;51.568;6.998;2022-08-21T07:47:36;20.01;70.59
64997;SHT31;51545;51.568;6.998;2022-08-21T07:50:01;19.98;71.19
64997;SHT31;51545;51.568;6.998;2022-08-21T07:52:28;20.06;71.18
64997;SHT31;51545;51.568;6.998;2022-08-21T07:54:53;20.13;70.07
64997;SHT31;51545;51.568;6.998;2022-08-21T07:57:18;20.25;70.66
64997;SHT31;51545;51.568;6.998;2022-08-21T07:59:44;20.41;69.68
64997;SHT31;51545;51.568;6.998;2022-08-21T08:02:09;20.41;69.91
64997;SHT31;51545;51.568;6.998;2022-08-21T08:04:35;20.53;69.02
64997;SHT31;51545;51.568;6.998;2022-08-21T08:07:01;20.51;68.91
64997;SHT31;51545;51.568;6.998;2022-08-21T08:09:26;20.60;69.04
64997;SHT31;51545;51.568;6.998;2022-08-21T08:11:51;20.57;67.85
64997;SHT31;51545;51.568;6.998;2022-08-21T08:14:17;20.71;67.25
64997;SHT31;51545;51.568;6.998;2022-08-21T08:16:42;20.63;67.34
64997;SHT31;51545;51.568;6.998;2022-08-21T08:19:08;20.55;66.99
64997;SHT31;51545;51.568;6.998;2022-08-21T08:21:33;20.61;67.41
64997;SHT31;51545;51.568;6.998;2022-08-21T08:24:00;20.48;67.12
64997;SHT31;51545;51.568;6.998;2022-08-21T08:26:26;20.53;66.92
64997;SHT31;51545;51.568;6.998;2022-08-21T08:28:51;20.84;67.29
64997;SHT31;51545;51.568;6.998;2022-08-21T08:31:17;20.67;67.52
64997;SHT31;51545;51.568;6.998;2022-08-21T08:33:42;20.85;67.34
64997;SHT31;51545;51.568;6.998;2022-08-21T08:36:17;20.98;66.83
64997;SHT31;51545;51.568;6.998;2022-08-21T08:38:43;21.13;66.40
64997;SHT31;51545;51.568;6.998;2022-08-21T08:41:13;21.27;64.68
64997;SHT31;51545;51.568;6.998;2022-08-21T08:43:39;20.98;64.06
64997;SHT31;51545;51.568;6.998;2022-08-21T08:46:11;21.10;64.79
64997;SHT31;51545;51.568;6.998;2022-08-21T08:51:17;21.43;63.48
64997;SHT31;51545;51.568;6.998;2022-08-21T08:53:52;21.30;63.35
64997;SHT31;51545;51.568;6.998;2022-08-21T08:56:26;21.47;62.39
64997;SHT31;51545;51.568;6.998;2022-08-21T08:58:56;21.78;61.88
64997;SHT31;51545;51.568;6.998;2022-08-21T09:01:27;21.71;62.42
64997;SHT31;51545;51.568;6.998;2022-08-21T09:03:52;21.64;62.33
64997;SHT31;51545;51.568;6.998;2022-08-21T09:09:19;21.54;62.10
64997;SHT31;51545;51.568;6.998;2022-08-21T09:23:15;21.95;61.81
64997;SHT31;51545;51.568;6.998;2022-08-21T09:25:57;22.35;60.73
64997;SHT31;51545;51.568;6.998;2022-08-21T09:28:35;22.61;60.13
64997;SHT31;51545;51.568;6.998;2022-08-21T09:31:03;22.77;59.00
64997;SHT31;51545;51.568;6.998;2022-08-21T09:33:32;22.37;60.23
64997;SHT31;51545;51.568;6.998;2022-08-21T09:35:58;22.46;60.23
64997;SHT31;51545;51.568;6.998;2022-08-21T09:38:34;22.52;58.97
64997;SHT31;51545;51.568;6.998;2022-08-21T09:41:09;22.36;59.61
64997;SHT31;51545;51.568;6.998;2022-08-21T09:43:35;22.33;60.10
64997;SHT31;51545;51.568;6.998;2022-08-21T09:46:09;22.36;59.55
64997;SHT31;51545;51.568;6.998;2022-08-21T09:51:12;22.87;58.66
64997;SHT31;51545;51.568;6.998;2022-08-21T09:53:46;22.90;59.58
64997;SHT31;51545;51.568;6.998;2022-08-21T09:56:19;23.27;57.83
64997;SHT31;51545;51.568;6.998;2022-08-21T09:59:16;23.19;57.11
64997;SHT31;51545;51.568;6.998;2022-08-21T10:01:50;23.74;56.03
64997;SHT31;51545;51.568;6.998;2022-08-21T10:04:19;24.05;55.81
64997;SHT31;51545;51.568;6.998;2022-08-21T10:06:48;23.36;55.67
64997;SHT31;51545;51.568;6.998;2022-08-21T10:09:15;23.60;56.66
64997;SHT31;51545;51.568;6.998;2022-08-21T10:11:49;24.13;55.25
64997;SHT31;51545;51.568;6.998;2022-08-21T10:14:27;23.98;55.39
64997;SHT31;51545;51.568;6.998;2022-08-21T10:17:07;23.39;55.61
64997;SHT31;51545;51.568;6.998;2022-08-21T10:25:21;24.78;53.46
64997;SHT31;51545;51.568;6.998;2022-08-21T10:28:17;25.71;51.93
64997;SHT31;51545;51.568;6.998;2022-08-21T10:31:04;26.12;50.95
64997;SHT31;51545;51.568;6.998;2022-08-21T10:33:53;25.82;51.59
64997;SHT31;51545;51.568;6.998;2022-08-21T10:36:58;25.88;49.72
64997;SHT31;51545;51.568;6.998;2022-08-21T10:48:46;28.00;46.02
64997;SHT31;51545;51.568;6.998;2022-08-21T10:51:17;26.84;46.70
64997;SHT31;51545;51.568;6.998;2022-08-21T10:54:05;26.80;46.87
64997;SHT31;51545;51.568;6.998;2022-08-21T10:56:36;26.86;47.64
64997;SHT31;51545;51.568;6.998;2022-08-21T10:59:18;27.69;46.14
64997;SHT31;51545;51.568;6.998;2022-08-21T11:01:59;28.08;45.50
64997;SHT31;51545;51.568;6.998;2022-08-21T11:07:16;26.21;47.93
64997;SHT31;51545;51.568;6.998;2022-08-21T11:10:00;25.99;48.74
64997;SHT31;51545;51.568;6.998;2022-08-21T11:18:02;25.75;49.71
64997;SHT31;51545;51.568;6.998;2022-08-21T11:20:40;26.45;48.63
64997;SHT31;51545;51.568;6.998;2022-08-21T11:23:25;27.97;46.11
64997;SHT31;51545;51.568;6.998;2022-08-21T11:25:58;28.04;45.85
64997;SHT31;51545;51.568;6.998;2022-08-21T11:28:38;27.73;45.68
64997;SHT31;51545;51.568;6.998;2022-08-21T11:36:57;25.37;50.77
64997;SHT31;51545;51.568;6.998;2022-08-21T11:39:43;25.84;47.92
64997;SHT31;51545;51.568;6.998;2022-08-21T11:44:50;26.83;47.07
64997;SHT31;51545;51.568;6.998;2022-08-21T11:47:29;26.57;47.90
64997;SHT31;51545;51.568;6.998;2022-08-21T11:50:17;27.90;46.30
64997;SHT31;51545;51.568;6.998;2022-08-21T11:55:36;26.94;47.91
64997;SHT31;51545;51.568;6.998;2022-08-21T11:58:07;26.73;47.41
64997;SHT31;51545;51.568;6.998;2022-08-21T12:00:47;27.08;47.18
64997;SHT31;51545;51.568;6.998;2022-08-21T12:03:33;27.92;46.13
64997;SHT31;51545;51.568;6.998;2022-08-21T12:06:02;28.79;45.24
64997;SHT31;51545;51.568;6.998;2022-08-21T12:08:37;28.77;45.23
64997;SHT31;51545;51.568;6.998;2022-08-21T12:11:20;28.28;45.32
64997;SHT31;51545;51.568;6.998;2022-08-21T12:13:58;27.47;46.85
64997;SHT31;51545;51.568;6.998;2022-08-21T12:19:03;27.25;46.61
64997;SHT31;51545;51.568;6.998;2022-08-21T12:21:47;27.42;46.35
64997;SHT31;51545;51.568;6.998;2022-08-21T12:26:53;26.87;47.01
64997;SHT31;51545;51.568;6.998;2022-08-21T12:29:30;26.46;47.72
64997;SHT31;51545;51.568;6.998;2022-08-21T12:32:03;27.59;46.51
64997;SHT31;51545;51.568;6.998;2022-08-21T12:34:52;28.18;45.39
64997;SHT31;51545;51.568;6.998;2022-08-21T12:37:34;28.60;44.97
64997;SHT31;51545;51.568;6.998;2022-08-21T12:40:20;26.71;46.75
64997;SHT31;51545;51.568;6.998;2022-08-21T12:42:51;26.40;48.44
64997;SHT31;51545;51.568;6.998;2022-08-21T12:45:22;26.33;48.38
64997;SHT31;51545;51.568;6.998;2022-08-21T12:47:56;26.76;46.70
64997;SHT31;51545;51.568;6.998;2022-08-21T12:51:09;26.84;46.95
64997;SHT31;51545;51.568;6.998;2022-08-21T12:53:42;29.08;43.28
64997;SHT31;51545;51.568;6.998;2022-08-21T12:56:18;28.66;43.30
64997;SHT31;51545;51.568;6.998;2022-08-21T12:58:55;29.25;43.61
64997;SHT31;51545;51.568;6.998;2022-08-21T13:01:43;29.43;43.14
64997;SHT31;51545;51.568;6.998;2022-08-21T13:04:15;28.12;44.12
64997;SHT31;51545;51.568;6.998;2022-08-21T13:06:47;28.35;43.78
64997;SHT31;51545;51.568;6.998;2022-08-21T13:09:16;28.60;43.95
64997;SHT31;51545;51.568;6.998;2022-08-21T13:11:45;28.37;43.86
64997;SHT31;51545;51.568;6.998;2022-08-21T13:14:14;29.63;42.07
64997;SHT31;51545;51.568;6.998;2022-08-21T13:16:55;29.66;41.82
64997;SHT31;51545;51.568;6.998;2022-08-21T13:19:22;31.50;40.01
64997;SHT31;51545;51.568;6.998;2022-08-21T13:21:49;30.88;40.11
64997;SHT31;51545;51.568;6.998;2022-08-21T13:26:54;31.21;39.64
64997;SHT31;51545;51.568;6.998;2022-08-21T13:29:21;31.22;39.50
64997;SHT31;51545;51.568;6.998;2022-08-21T13:31:53;30.07;40.38
64997;SHT31;51545;51.568;6.998;2022-08-21T13:34:22;28.32;43.33
64997;SHT31;51545;51.568;6.998;2022-08-21T13:36:54;26.76;46.22
64997;SHT31;51545;51.568;6.998;2022-08-21T13:39:24;26.26;47.68
64997;SHT31;51545;51.568;6.998;2022-08-21T13:41:51;26.68;48.39
64997;SHT31;51545;51.568;6.998;2022-08-21T13:44:22;26.57;47.74
64997;SHT31;51545;51.568;6.998;2022-08-21T13:46:57;29.18;43.48
64997;SHT31;51545;51.568;6.998;2022-08-21T13:49:35;29.11;42.67
64997;SHT31;51545;51.568;6.998;2022-08-21T13:52:04;28.47;44.09
64997;SHT31;51545;51.568;6.998;2022-08-21T13:54:39;29.04;42.64
64997;SHT31;51545;51.568;6.998;2022-08-21T13:57:26;28.54;43.69
64997;SHT31;51545;51.568;6.998;2022-08-21T13:59:53;28.25;45.22
64997;SHT31;51545;51.568;6.998;2022-08-21T14:02:39;28.47;45.19
64997;SHT31;51545;51.568;6.998;2022-08-21T14:05:07;29.54;44.09
64997;SHT31;51545;51.568;6.998;2022-08-21T14:07:41;28.66;44.34
64997;SHT31;51545;51.568;6.998;2022-08-21T14:10:16;27.80;45.21
64997;SHT31;51545;51.568;6.998;2022-08-21T14:15:17;27.08;47.33
64997;SHT31;51545;51.568;6.998;2022-08-21T14:17:44;26.79;47.97
64997;SHT31;51545;51.568;6.998;2022-08-21T14:20:12;26.15;49.30
64997;SHT31;51545;51.568;6.998;2022-08-21T14:22:51;25.99;49.26
64997;SHT31;51545;51.568;6.998;2022-08-21T14:27:54;25.99;49.97
64997;SHT31;51545;51.568;6.998;2022-08-21T14:30:40;26.12;49.26
64997;SHT31;51545;51.568;6.998;2022-08-21T14:33:08;26.32;48.79
64997;SHT31;51545;51.568;6.998;2022-08-21T14:35:35;26.36;48.39
64997;SHT31;51545;51.568;6.998;2022-08-21T14:38:01;26.65;48.42
64997;SHT31;51545;51.568;6.998;2022-08-21T14:40:27;26.64;48.68
64997;SHT31;51545;51.568;6.998;2022-08-21T14:42:53;27.16;47.21
64997;SHT31;51545;51.568;6.998;2022-08-21T14:45:25;27.01;47.90
64997;SHT31;51545;51.568;6.998;2022-08-21T14:47:52;27.35;47.55
64997;SHT31;51545;51.568;6.998;2022-08-21T14:50:18;27.01;47.59
64997;SHT31;51545;51.568;6.998;2022-08-21T14:52:44;28.19;45.47
64997;SHT31;51545;51.568;6.998;2022-08-21T14:55:11;27.70;46.76
64997;SHT31;51545;51.568;6.998;2022-08-21T14:57:41;29.57;42.77
64997;SHT31;51545;51.568;6.998;2022-08-21T15:00:10;30.52;41.15
64997;SHT31;51545;51.568;6.998;2022-08-21T15:02:37;31.17;39.68
64997;SHT31;51545;51.568;6.998;2022-08-21T15:05:03;30.83;40.38
64997;SHT31;51545;51.568;6.998;2022-08-21T15:07:29;32.01;37.45
64997;SHT31;51545;51.568;6.998;2022-08-21T15:09:55;32.36;37.77
64997;SHT31;51545;51.568;6.998;2022-08-21T15:12:21;31.03;39.41
64997;SHT31;51545;51.568;6.998;2022-08-21T15:14:47;32.84;37.30
64997;SHT31;51545;51.568;6.998;2022-08-21T15:17:13;33.55;36.61
64997;SHT31;51545;51.568;6.998;2022-08-21T15:19:38;31.45;39.65
64997;SHT31;51545;51.568;6.998;2022-08-21T15:22:04;33.08;37.35
64997;SHT31;51545;51.568;6.998;2022-08-21T15:24:30;32.72;38.54
64997;SHT31;51545;51.568;6.998;2022-08-21T15:26:56;32.42;38.26
64997;SHT31;51545;51.568;6.998;2022-08-21T15:29:24;29.39;41.41
64997;SHT31;51545;51.568;6.998;2022-08-21T15:32:00;29.08;42.23
64997;SHT31;51545;51.568;6.998;2022-08-21T15:34:39;28.91;43.41
64997;SHT31;51545;51.568;6.998;2022-08-21T15:37:05;28.56;43.67
64997;SHT31;51545;51.568;6.998;2022-08-21T15:39:32;28.86;42.92
64997;SHT31;51545;51.568;6.998;2022-08-21T15:42:00;29.14;43.15
64997;SHT31;51545;51.568;6.998;2022-08-21T15:44:26;31.35;38.86
64997;SHT31;51545;51.568;6.998;2022-08-21T15:46:53;32.86;36.94
64997;SHT31;51545;51.568;6.998;2022-08-21T15:49:19;33.24;36.77
64997;SHT31;51545;51.568;6.998;2022-08-21T15:51:44;33.02;36.09
64997;SHT31;51545;51.568;6.998;2022-08-21T15:54:10;32.46;36.41
64997;SHT31;51545;51.568;6.998;2022-08-21T15:56:36;29.26;40.95
64997;SHT31;51545;51.568;6.998;2022-08-21T15:59:05;29.07;42.16
64997;SHT31;51545;51.568;6.998;2022-08-21T16:01:37;29.29;42.40
64997;SHT31;51545;51.568;6.998;2022-08-21T16:04:03;28.35;41.70
64997;SHT31;51545;51.568;6.998;2022-08-21T16:06:31;28.21;42.66
64997;SHT31;51545;51.568;6.998;2022-08-21T16:08:57;27.16;44.49
64997;SHT31;51545;51.568;6.998;2022-08-21T16:11:22;27.26;44.67
64997;SHT31;51545;51.568;6.998;2022-08-21T16:13:48;27.15;44.30
64997;SHT31;51545;51.568;6.998;2022-08-21T16:16:20;27.66;44.01
64997;SHT31;51545;51.568;6.998;2022-08-21T16:18:47;27.97;44.04
64997;SHT31;51545;51.568;6.998;2022-08-21T16:21:15;28.11;42.96
64997;SHT31;51545;51.568;6.998;2022-08-21T16:23:40;27.26;43.36
64997;SHT31;51545;51.568;6.998;2022-08-21T16:26:06;27.77;43.49
64997;SHT31;51545;51.568;6.998;2022-08-21T16:28:35;27.70;42.23
64997;SHT31;51545;51.568;6.998;2022-08-21T16:31:02;27.39;42.00
64997;SHT31;51545;51.568;6.998;2022-08-21T16:33:38;26.65;44.38
64997;SHT31;51545;51.568;6.998;2022-08-21T16:36:06;26.80;44.99
64997;SHT31;51545;51.568;6.998;2022-08-21T16:38:33;26.76;44.67
64997;SHT31;51545;51.568;6.998;2022-08-21T16:41:00;26.86;44.10
64997;SHT31;51545;51.568;6.998;2022-08-21T16:43:27;27.26;42.98
64997;SHT31;51545;51.568;6.998;2022-08-21T16:45:55;27.50;41.36
64997;SHT31;51545;51.568;6.998;2022-08-21T16:48:22;27.11;44.21
64997;SHT31;51545;51.568;6.998;2022-08-21T16:50:48;26.65;44.58